createdAt,value
2023-02-05T00:10:02.000Z,1007.46
2023-02-05T00:24:40.000Z,1007.27
2023-02-05T00:39:16.000Z,1007.00
2023-02-05T00:53:55.000Z,1006.84
2023-02-05T01:08:29.000Z,1006.73
2023-02-05T01:23:07.000Z,1006.67
2023-02-05T01:37:46.000Z,1006.39
2023-02-05T01:52:24.000Z,1006.23
2023-02-05T02:07:02.000Z,1006.13
2023-02-05T02:21:39.000Z,1005.82
2023-02-05T02:36:14.000Z,1005.82
2023-02-05T02:50:44.000Z,1005.72
2023-02-05T03:05:19.000Z,1005.77
2023-02-05T03:19:58.000Z,1005.82
2023-02-05T03:34:36.000Z,1005.79
2023-02-05T03:49:13.000Z,1005.81
2023-02-05T04:03:52.000Z,1005.41
2023-02-05T04:18:28.000Z,1005.14
2023-02-05T04:33:07.000Z,1005.35
2023-02-05T04:47:44.000Z,1005.48
2023-02-05T05:02:22.000Z,1005.79
2023-02-05T05:17:02.000Z,1005.94
2023-02-05T05:31:40.000Z,1005.93
2023-02-05T05:46:17.000Z,1005.89
2023-02-05T06:00:54.000Z,1005.40
2023-02-05T06:15:32.000Z,1005.37
2023-02-05T06:30:10.000Z,1005.39
2023-02-05T06:44:47.000Z,1005.66
2023-02-05T06:59:24.000Z,1005.77
2023-02-05T07:14:02.000Z,1005.69
2023-02-05T07:28:39.000Z,1005.40
2023-02-05T07:43:20.000Z,1005.41
2023-02-05T07:57:57.000Z,1005.40
2023-02-05T08:12:36.000Z,1005.20
2023-02-05T08:27:16.000Z,1005.16
2023-02-05T08:41:55.000Z,1005.17
2023-02-05T08:56:34.000Z,1005.03
2023-02-05T09:11:14.000Z,1004.86
2023-02-05T09:25:51.000Z,1004.85
2023-02-05T09:40:30.000Z,1004.62
2023-02-05T09:55:08.000Z,1004.62
2023-02-05T10:09:44.000Z,1004.62
2023-02-05T10:24:22.000Z,1004.32
2023-02-05T10:39:01.000Z,1004.21
2023-02-05T10:53:39.000Z,1004.12
2023-02-05T11:08:09.000Z,1004.18
2023-02-05T11:22:49.000Z,1004.10
2023-02-05T11:37:29.000Z,1004.33
2023-02-05T11:52:09.000Z,1004.47
2023-02-05T12:06:48.000Z,1004.36
2023-02-05T12:21:28.000Z,1004.24
2023-02-05T12:36:05.000Z,1004.32
2023-02-05T12:50:43.000Z,1004.38
2023-02-05T13:05:20.000Z,1004.31
2023-02-05T13:19:58.000Z,1004.25
2023-02-05T13:34:37.000Z,1004.08
2023-02-05T13:49:16.000Z,1004.12
2023-02-05T14:03:54.000Z,1004.09
2023-02-05T14:18:32.000Z,1004.29
2023-02-05T14:33:07.000Z,1004.49
2023-02-05T14:47:45.000Z,1004.59
2023-02-05T15:02:24.000Z,1004.64
2023-02-05T15:17:03.000Z,1004.98
2023-02-05T15:31:41.000Z,1005.12
2023-02-05T15:46:19.000Z,1005.20
2023-02-05T16:00:58.000Z,1005.50
2023-02-05T16:15:36.000Z,1005.88
2023-02-05T16:30:14.000Z,1006.23
2023-02-05T16:44:52.000Z,1006.55
2023-02-05T16:59:30.000Z,1006.72
2023-02-05T17:14:09.000Z,1007.00
2023-02-05T17:28:47.000Z,1006.98
2023-02-05T17:43:26.000Z,1007.35
2023-02-05T17:58:00.000Z,1007.51
2023-02-05T18:12:39.000Z,1007.53
2023-02-05T18:27:16.000Z,1007.76
2023-02-05T18:41:54.000Z,1007.86
2023-02-05T18:56:31.000Z,1007.87
2023-02-05T19:11:08.000Z,1007.96
2023-02-05T19:25:44.000Z,1007.95
2023-02-05T19:40:22.000Z,1008.01
2023-02-05T19:55:00.000Z,1008.07
2023-02-05T20:09:38.000Z,1008.28
2023-02-05T20:24:17.000Z,1008.35
2023-02-05T20:38:57.000Z,1008.50
2023-02-05T20:53:25.000Z,1008.59
2023-02-05T21:08:04.000Z,1008.53
2023-02-05T21:22:41.000Z,1008.60
2023-02-05T21:37:15.000Z,1008.85
2023-02-05T21:51:57.000Z,1008.79
2023-02-05T22:06:31.000Z,1008.97
2023-02-05T22:21:09.000Z,1009.22
2023-02-05T22:35:46.000Z,1009.38
2023-02-05T22:50:24.000Z,1009.40
2023-02-05T23:05:03.000Z,1009.58
2023-02-05T23:19:40.000Z,1009.54
2023-02-05T23:34:08.000Z,1009.67
2023-02-05T23:48:54.000Z,1009.69
